createdAt,value
2019-06-15T00:01:19.116Z,52.11
2019-06-15T00:03:47.615Z,52.14
2019-06-15T00:06:16.134Z,51.97
2019-06-15T00:08:44.620Z,51.99
2019-06-15T00:11:13.198Z,52.09
2019-06-15T00:13:41.693Z,52.18
2019-06-15T00:16:10.246Z,52.41
2019-06-15T00:18:38.726Z,52.41
2019-06-15T00:21:07.256Z,52.55
2019-06-15T00:23:35.819Z,52.63
2019-06-15T00:26:04.482Z,52.68
2019-06-15T00:28:33.149Z,52.70
2019-06-15T00:31:01.635Z,52.76
2019-06-15T00:33:30.126Z,52.79
2019-06-15T00:35:58.664Z,52.91
2019-06-15T00:38:27.160Z,53.15
2019-06-15T00:40:57.360Z,53.14
2019-06-15T00:43:26.046Z,53.23
2019-06-15T00:45:54.528Z,53.41
2019-06-15T00:48:23.012Z,53.50
2019-06-15T00:50:51.528Z,53.75
2019-06-15T00:53:20.037Z,53.85
2019-06-15T00:55:48.500Z,53.92
2019-06-15T00:58:17.093Z,54.01
2019-06-15T01:00:45.638Z,54.23
2019-06-15T01:03:14.496Z,54.30
2019-06-15T01:05:43.010Z,54.39
2019-06-15T01:08:11.532Z,54.53
2019-06-15T01:10:40.016Z,54.62
2019-06-15T01:13:08.544Z,54.79
2019-06-15T01:15:37.068Z,54.90
2019-06-15T01:18:05.683Z,55.15
2019-06-15T01:20:34.218Z,55.49
2019-06-15T01:23:02.801Z,55.85
2019-06-15T01:25:31.281Z,55.99
2019-06-15T01:27:59.828Z,56.21
2019-06-15T01:30:28.319Z,56.47
2019-06-15T01:32:56.799Z,56.70
2019-06-15T01:35:25.314Z,57.03
2019-06-15T01:37:53.789Z,57.06
2019-06-15T01:40:22.632Z,57.18
2019-06-15T01:42:51.173Z,57.42
2019-06-15T01:45:25.436Z,57.53
2019-06-15T01:47:54.465Z,57.65
2019-06-15T01:50:23.004Z,57.85
2019-06-15T01:52:51.556Z,58.16
2019-06-15T01:55:21.339Z,58.40
2019-06-15T01:57:50.052Z,58.52
2019-06-15T02:00:29.556Z,58.88
2019-06-15T02:02:58.170Z,58.99
2019-06-15T02:05:27.820Z,59.26
2019-06-15T02:07:56.457Z,59.46
2019-06-15T02:10:29.398Z,59.71
2019-06-15T02:12:57.956Z,59.90
2019-06-15T02:15:26.516Z,60.09
2019-06-15T02:17:55.064Z,60.31
2019-06-15T02:20:23.629Z,60.60
2019-06-15T02:22:52.106Z,60.78
2019-06-15T02:25:35.822Z,60.89
2019-06-15T02:27:59.189Z,61.08
2019-06-15T02:30:32.869Z,61.05
2019-06-15T02:33:01.596Z,61.29
2019-06-15T02:35:30.248Z,61.39
2019-06-15T02:37:58.915Z,61.59
2019-06-15T02:40:27.502Z,61.64
2019-06-15T02:42:56.054Z,61.67
2019-06-15T02:45:24.796Z,61.83
2019-06-15T02:47:53.394Z,61.89
2019-06-15T02:50:22.117Z,61.92
2019-06-15T02:52:50.676Z,61.99
2019-06-15T02:55:19.270Z,62.26
2019-06-15T02:57:47.891Z,62.25
2019-06-15T03:00:19.565Z,62.34
2019-06-15T03:02:48.162Z,62.29
2019-06-15T03:05:16.724Z,62.41
2019-06-15T03:07:46.361Z,62.55
2019-06-15T03:10:15.050Z,62.63
2019-06-15T03:12:43.540Z,62.74
2019-06-15T03:15:13.875Z,62.84
2019-06-15T03:17:42.360Z,62.83
2019-06-15T03:20:10.986Z,62.82
2019-06-15T03:22:39.514Z,62.85
2019-06-15T03:25:12.324Z,62.83
2019-06-15T03:27:40.818Z,62.86
2019-06-15T03:30:09.835Z,63.06
2019-06-15T03:32:38.332Z,63.14
2019-06-15T03:35:09.141Z,63.09
2019-06-15T03:37:37.651Z,63.25
2019-06-15T03:40:06.972Z,63.20
2019-06-15T03:42:35.457Z,63.11
2019-06-15T03:45:08.086Z,63.02
2019-06-15T03:47:36.640Z,63.01
2019-06-15T03:50:06.171Z,63.11
2019-06-15T03:52:34.690Z,63.28
2019-06-15T03:55:03.415Z,63.33
2019-06-15T03:57:31.892Z,63.43
2019-06-15T04:00:00.665Z,63.54
2019-06-15T04:02:29.411Z,63.84
2019-06-15T04:04:57.894Z,63.92
2019-06-15T04:07:26.424Z,64.01
2019-06-15T04:09:55.942Z,64.11
2019-06-15T04:12:24.435Z,64.32
2019-06-15T04:14:52.967Z,64.25
2019-06-15T04:17:21.467Z,64.29
2019-06-15T04:19:49.954Z,64.37
2019-06-15T04:22:18.503Z,64.34
2019-06-15T04:24:47.005Z,64.39
2019-06-15T04:27:15.489Z,64.32
2019-06-15T04:29:44.022Z,64.18
2019-06-15T04:32:14.143Z,64.23
2019-06-15T04:34:42.615Z,64.06
2019-06-15T04:37:11.148Z,64.17
2019-06-15T04:39:39.625Z,64.15
2019-06-15T04:42:08.188Z,64.07
2019-06-15T04:44:36.764Z,64.09
2019-06-15T04:47:05.324Z,64.10
2019-06-15T04:49:33.806Z,64.10
2019-06-15T04:52:02.520Z,64.05
2019-06-15T04:54:31.015Z,64.12
2019-06-15T04:56:59.500Z,63.98
2019-06-15T04:59:28.064Z,64.06
2019-06-15T05:01:56.543Z,64.33
2019-06-15T05:04:25.036Z,64.47
2019-06-15T05:06:53.601Z,64.42
2019-06-15T05:09:22.131Z,64.35
2019-06-15T05:11:51.988Z,64.34
2019-06-15T05:14:20.520Z,64.09
2019-06-15T05:16:49.042Z,63.92
2019-06-15T05:19:17.493Z,63.88
2019-06-15T05:21:46.014Z,63.70
2019-06-15T05:24:14.506Z,63.63
2019-06-15T05:26:42.992Z,63.57
2019-06-15T05:29:11.511Z,63.50
2019-06-15T05:31:39.991Z,63.32
2019-06-15T05:34:08.578Z,63.44
2019-06-15T05:36:37.128Z,63.44
2019-06-15T05:39:06.819Z,63.40
2019-06-15T05:41:36.071Z,63.20
2019-06-15T05:44:05.330Z,63.05
2019-06-15T05:46:33.822Z,62.98
2019-06-15T05:49:02.303Z,62.77
2019-06-15T05:51:30.865Z,62.56
2019-06-15T05:53:59.345Z,62.40
2019-06-15T05:56:27.839Z,62.06
2019-06-15T05:58:56.366Z,61.83
2019-06-15T06:01:24.875Z,61.92
2019-06-15T06:03:53.346Z,61.85
2019-06-15T06:06:21.953Z,61.47
2019-06-15T06:08:53.303Z,61.19
2019-06-15T06:11:21.784Z,61.21
2019-06-15T06:13:50.962Z,60.79
2019-06-15T06:16:19.442Z,60.66
2019-06-15T06:18:47.922Z,60.72
2019-06-15T06:21:16.446Z,60.35
2019-06-15T06:23:44.926Z,60.28
2019-06-15T06:26:13.417Z,60.09
2019-06-15T06:28:54.084Z,60.27
2019-06-15T06:31:12.173Z,60.13
2019-06-15T06:33:40.656Z,60.35
2019-06-15T06:36:09.211Z,60.37
2019-06-15T06:38:37.692Z,60.03
2019-06-15T06:41:06.181Z,60.39
2019-06-15T06:43:34.704Z,60.58
2019-06-15T06:46:03.294Z,60.65
2019-06-15T06:48:31.781Z,60.88
2019-06-15T06:51:00.336Z,61.03
2019-06-15T06:53:28.894Z,61.15
2019-06-15T06:55:57.367Z,61.35
2019-06-15T06:58:25.895Z,61.27
2019-06-15T07:00:54.385Z,61.43
2019-06-15T07:03:22.883Z,61.31
2019-06-15T07:05:51.400Z,61.29
2019-06-15T07:08:19.906Z,61.31
2019-06-15T07:10:48.439Z,60.98
2019-06-15T07:13:16.945Z,61.20
2019-06-15T07:15:45.615Z,61.01
2019-06-15T07:18:14.100Z,60.82
2019-06-15T07:20:42.635Z,60.83
2019-06-15T07:23:11.143Z,60.72
2019-06-15T07:25:39.628Z,60.36
2019-06-15T07:28:08.708Z,60.15
2019-06-15T07:30:37.338Z,59.69
2019-06-15T07:33:05.836Z,59.51
2019-06-15T07:35:34.613Z,58.92
2019-06-15T07:38:03.100Z,58.80
2019-06-15T07:40:31.594Z,58.77
2019-06-15T07:43:00.110Z,59.09
2019-06-15T07:45:28.601Z,58.89
2019-06-15T07:48:02.543Z,58.56
2019-06-15T07:50:31.062Z,58.74
2019-06-15T07:52:59.547Z,58.53
2019-06-15T07:55:28.034Z,58.57
2019-06-15T07:57:56.574Z,58.16
2019-06-15T08:00:25.209Z,58.03
2019-06-15T08:02:55.327Z,57.93
2019-06-15T08:05:23.882Z,58.10
2019-06-15T08:07:54.771Z,58.33
2019-06-15T08:10:23.351Z,57.73
2019-06-15T08:12:54.668Z,57.88
2019-06-15T08:15:28.313Z,58.16
2019-06-15T08:17:57.457Z,58.23
2019-06-15T08:20:31.802Z,58.34
2019-06-15T08:23:00.283Z,58.22
2019-06-15T08:25:28.777Z,57.67
2019-06-15T08:27:57.293Z,57.63
2019-06-15T08:30:34.609Z,57.32
2019-06-15T08:33:03.147Z,57.15
2019-06-15T08:35:31.624Z,57.43
2019-06-15T08:38:00.122Z,57.51
2019-06-15T08:40:28.657Z,58.25
2019-06-15T08:42:57.157Z,57.34
2019-06-15T08:45:25.646Z,57.18
2019-06-15T08:47:54.165Z,56.97
2019-06-15T08:50:22.652Z,57.07
2019-06-15T08:52:51.123Z,56.96
2019-06-15T08:55:19.637Z,57.22
2019-06-15T08:57:48.212Z,57.48
2019-06-15T09:00:17.151Z,57.35
2019-06-15T09:02:45.684Z,57.27
2019-06-15T09:05:14.339Z,57.62
2019-06-15T09:07:42.886Z,57.39
2019-06-15T09:10:11.844Z,57.19
2019-06-15T09:12:40.332Z,56.69
2019-06-15T09:15:09.560Z,56.75
2019-06-15T09:17:38.089Z,56.22
2019-06-15T09:20:09.492Z,56.07
2019-06-15T09:22:37.975Z,56.15
2019-06-15T09:25:06.898Z,56.25
2019-06-15T09:27:35.403Z,55.74
2019-06-15T09:30:05.508Z,55.59
2019-06-15T09:32:34.040Z,55.89
2019-06-15T09:35:02.527Z,54.84
2019-06-15T09:37:31.086Z,54.71
2019-06-15T09:39:59.617Z,55.06
2019-06-15T09:42:28.153Z,54.75
2019-06-15T09:44:56.655Z,54.37
2019-06-15T09:47:25.184Z,54.78
2019-06-15T09:49:53.677Z,54.71
2019-06-15T09:52:22.179Z,54.90
2019-06-15T09:54:50.734Z,54.68
2019-06-15T09:57:19.293Z,54.51
2019-06-15T09:59:47.770Z,54.75
2019-06-15T10:02:16.295Z,55.00
2019-06-15T10:04:44.786Z,55.48
2019-06-15T10:07:13.293Z,55.79
2019-06-15T10:09:41.840Z,56.08
2019-06-15T10:12:10.341Z,56.20
2019-06-15T10:14:38.840Z,55.51
2019-06-15T10:17:07.369Z,54.88
2019-06-15T10:19:35.860Z,54.63
2019-06-15T10:22:05.446Z,54.52
2019-06-15T10:24:33.977Z,54.54
2019-06-15T10:27:02.462Z,54.88
2019-06-15T10:29:41.521Z,55.02
2019-06-15T10:32:01.311Z,54.80
2019-06-15T10:34:29.825Z,54.92
2019-06-15T10:36:58.351Z,54.87
2019-06-15T10:39:26.871Z,54.96
2019-06-15T10:41:55.343Z,55.29
2019-06-15T10:44:23.824Z,55.44
2019-06-15T10:46:52.343Z,55.43
2019-06-15T10:49:20.832Z,55.54
2019-06-15T10:51:49.318Z,55.54
2019-06-15T10:54:17.841Z,55.67
2019-06-15T10:56:46.326Z,55.58
2019-06-15T10:59:18.123Z,56.06
2019-06-15T11:01:46.666Z,56.11
2019-06-15T11:04:15.151Z,56.56
2019-06-15T11:06:43.639Z,56.44
2019-06-15T11:09:12.174Z,56.54
2019-06-15T11:11:40.747Z,56.50
2019-06-15T11:14:10.008Z,56.11
2019-06-15T11:16:38.541Z,56.17
2019-06-15T11:19:07.105Z,55.86
2019-06-15T11:21:35.578Z,56.18
2019-06-15T11:24:04.627Z,55.55
2019-06-15T11:26:33.180Z,55.33
2019-06-15T11:29:01.909Z,55.26
2019-06-15T11:31:30.507Z,55.25
2019-06-15T11:33:59.021Z,54.87
2019-06-15T11:36:27.581Z,54.39
2019-06-15T11:38:56.164Z,53.59
2019-06-15T11:41:24.719Z,52.90
2019-06-15T11:43:53.205Z,52.79
2019-06-15T11:46:21.748Z,51.37
2019-06-15T11:48:50.226Z,50.67
2019-06-15T11:51:18.867Z,50.80
2019-06-15T11:53:47.374Z,50.25
2019-06-15T11:56:15.952Z,50.12
2019-06-15T11:58:44.424Z,50.13
2019-06-15T12:01:12.935Z,49.54
2019-06-15T12:03:41.420Z,49.35
2019-06-15T12:06:09.901Z,49.47
2019-06-15T12:08:38.424Z,49.18
2019-06-15T12:11:06.914Z,48.81
2019-06-15T12:13:35.410Z,48.20
2019-06-15T12:16:04.042Z,48.20
2019-06-15T12:18:32.544Z,48.20
2019-06-15T12:21:01.032Z,48.04
2019-06-15T12:23:29.630Z,47.74
2019-06-15T12:25:58.537Z,47.90
2019-06-15T12:28:27.086Z,48.90
2019-06-15T12:30:55.603Z,49.36
2019-06-15T12:33:24.153Z,49.39
2019-06-15T12:35:52.651Z,49.62
2019-06-15T12:38:21.173Z,49.88
2019-06-15T12:40:49.659Z,49.81
2019-06-15T12:43:18.135Z,49.65
2019-06-15T12:45:46.660Z,49.58
2019-06-15T12:48:15.143Z,49.75
2019-06-15T12:50:43.629Z,50.51
2019-06-15T12:53:12.153Z,50.76
2019-06-15T12:55:40.640Z,51.62
2019-06-15T12:58:09.110Z,50.60
2019-06-15T13:00:39.936Z,50.63
2019-06-15T13:03:08.480Z,50.58
2019-06-15T13:05:36.958Z,50.05
2019-06-15T13:08:05.675Z,49.88
2019-06-15T13:10:34.236Z,50.11
2019-06-15T13:13:02.804Z,49.89
2019-06-15T13:15:31.510Z,49.45
2019-06-15T13:18:01.734Z,49.26
2019-06-15T13:20:30.541Z,48.61
2019-06-15T13:22:59.801Z,47.99
2019-06-15T13:25:28.429Z,47.28
2019-06-15T13:27:58.365Z,47.37
2019-06-15T13:30:27.053Z,47.51
2019-06-15T13:32:55.623Z,47.39
2019-06-15T13:35:24.196Z,47.77
2019-06-15T13:37:52.887Z,47.19
2019-06-15T13:40:21.545Z,47.47
2019-06-15T13:42:50.113Z,47.13
2019-06-15T13:45:19.145Z,47.80
2019-06-15T13:47:47.833Z,46.61
2019-06-15T13:50:16.407Z,46.86
2019-06-15T13:52:45.006Z,46.20
2019-06-15T13:55:13.821Z,46.26
2019-06-15T13:57:42.563Z,46.67
2019-06-15T14:00:11.575Z,47.00
2019-06-15T14:02:40.163Z,47.08
2019-06-15T14:05:09.376Z,45.69
2019-06-15T14:07:37.978Z,45.88
2019-06-15T14:10:06.967Z,46.60
2019-06-15T14:12:35.544Z,47.52
2019-06-15T14:15:07.448Z,47.77
2019-06-15T14:17:39.523Z,48.33
2019-06-15T14:20:06.577Z,48.33
2019-06-15T14:22:35.097Z,48.46
2019-06-15T14:25:05.693Z,48.54
2019-06-15T14:27:34.177Z,48.77
2019-06-15T14:30:06.397Z,48.86
2019-06-15T14:32:34.930Z,49.17
2019-06-15T14:35:04.643Z,48.82
2019-06-15T14:37:33.179Z,48.97
2019-06-15T14:40:01.715Z,49.15
2019-06-15T14:42:30.179Z,49.72
2019-06-15T14:44:58.701Z,49.94
2019-06-15T14:47:27.181Z,50.23
2019-06-15T14:49:55.671Z,50.60
2019-06-15T14:52:24.224Z,50.98
2019-06-15T14:54:52.716Z,51.60
2019-06-15T14:57:21.215Z,51.67
2019-06-15T15:00:00.467Z,52.09
2019-06-15T15:02:19.956Z,52.24
2019-06-15T15:04:48.444Z,52.32
2019-06-15T15:07:17.063Z,52.99
2019-06-15T15:09:46.900Z,53.65
2019-06-15T15:12:16.185Z,54.54
2019-06-15T15:14:46.932Z,55.29
2019-06-15T15:17:17.230Z,55.95
2019-06-15T15:19:46.621Z,58.12
2019-06-15T15:22:16.016Z,60.24
2019-06-15T15:24:44.674Z,58.81
2019-06-15T15:27:13.150Z,57.80
2019-06-15T15:29:42.834Z,58.15
2019-06-15T15:32:25.171Z,58.71
2019-06-15T15:34:42.756Z,59.89
2019-06-15T15:37:11.272Z,59.90
2019-06-15T15:39:39.822Z,61.27
2019-06-15T15:42:08.271Z,61.52
2019-06-15T15:44:36.789Z,62.05
2019-06-15T15:47:07.120Z,62.83
2019-06-15T15:49:37.433Z,64.28
2019-06-15T15:52:05.983Z,63.48
2019-06-15T15:54:46.806Z,63.89
2019-06-15T15:57:17.220Z,64.12
2019-06-15T15:59:46.795Z,64.54
2019-06-15T16:02:16.114Z,64.75
2019-06-15T16:04:46.960Z,64.98
2019-06-15T16:07:16.851Z,65.25
2019-06-15T16:09:45.415Z,65.53
2019-06-15T16:12:13.932Z,65.75
2019-06-15T16:14:42.428Z,66.38
2019-06-15T16:17:10.899Z,66.35
2019-06-15T16:19:39.442Z,67.01
2019-06-15T16:22:07.939Z,66.98
2019-06-15T16:24:37.488Z,66.55
2019-06-15T16:27:07.089Z,66.53
2019-06-15T16:29:37.289Z,66.29
2019-06-15T16:32:07.108Z,66.28
2019-06-15T16:34:36.981Z,66.49
2019-06-15T16:37:06.561Z,66.23
2019-06-15T16:39:36.136Z,65.91
2019-06-15T16:42:06.558Z,65.45
2019-06-15T16:44:36.615Z,63.14
2019-06-15T16:47:06.083Z,62.29
2019-06-15T16:49:36.331Z,60.99
2019-06-15T16:52:06.234Z,60.12
2019-06-15T16:54:36.145Z,59.23
2019-06-15T16:57:04.764Z,58.55
2019-06-15T16:59:33.248Z,57.67
2019-06-15T17:02:01.812Z,57.23
2019-06-15T17:04:30.406Z,56.67
2019-06-15T17:06:58.895Z,56.08
2019-06-15T17:09:27.694Z,55.08
2019-06-15T17:11:57.073Z,54.55
2019-06-15T17:14:27.111Z,54.21
2019-06-15T17:16:56.661Z,53.33
2019-06-15T17:19:26.928Z,53.24
2019-06-15T17:21:58.121Z,53.26
2019-06-15T17:24:26.528Z,53.92
2019-06-15T17:26:57.038Z,53.58
2019-06-15T17:29:25.497Z,53.70
2019-06-15T17:31:53.971Z,53.98
2019-06-15T17:34:22.503Z,53.57
2019-06-15T17:36:51.102Z,54.00
2019-06-15T17:39:19.623Z,54.09
2019-06-15T17:41:48.143Z,54.46
2019-06-15T17:44:16.933Z,54.80
2019-06-15T17:46:46.404Z,55.23
2019-06-15T17:49:17.680Z,55.51
2019-06-15T17:51:46.128Z,56.13
2019-06-15T17:54:16.964Z,56.39
2019-06-15T17:56:46.254Z,56.66
2019-06-15T17:59:16.235Z,57.29
2019-06-15T18:01:46.928Z,57.81
2019-06-15T18:04:16.697Z,58.40
2019-06-15T18:06:46.871Z,58.48
2019-06-15T18:09:17.114Z,59.01
2019-06-15T18:11:46.485Z,59.63
2019-06-15T18:14:17.480Z,60.32
2019-06-15T18:16:46.977Z,60.94
2019-06-15T18:19:17.080Z,61.45
2019-06-15T18:21:46.756Z,61.77
2019-06-15T18:24:16.237Z,61.53
2019-06-15T18:26:47.153Z,61.68
2019-06-15T18:29:16.771Z,62.26
2019-06-15T18:31:45.517Z,62.58
2019-06-15T18:34:16.741Z,62.52
2019-06-15T18:36:44.232Z,62.71
2019-06-15T18:39:12.910Z,62.92
2019-06-15T18:41:41.502Z,62.97
2019-06-15T18:44:09.985Z,63.34
2019-06-15T18:46:38.473Z,63.79
2019-06-15T18:49:06.996Z,64.43
2019-06-15T18:51:35.498Z,64.72
2019-06-15T18:54:06.591Z,65.27
2019-06-15T18:56:36.354Z,65.78
2019-06-15T18:59:07.105Z,66.14
2019-06-15T19:01:37.380Z,66.51
2019-06-15T19:04:06.774Z,66.87
2019-06-15T19:06:37.034Z,66.87
2019-06-15T19:09:10.214Z,66.99
2019-06-15T19:11:38.700Z,67.29
2019-06-15T19:14:07.178Z,67.70
2019-06-15T19:16:37.203Z,67.92
2019-06-15T19:19:09.044Z,68.08
2019-06-15T19:21:36.159Z,68.12
2019-06-15T19:24:07.077Z,68.18
2019-06-15T19:26:37.428Z,68.43
2019-06-15T19:29:06.502Z,68.69
2019-06-15T19:31:36.714Z,68.96
2019-06-15T19:34:06.822Z,68.96
2019-06-15T19:36:36.623Z,69.15
2019-06-15T19:39:07.868Z,69.38
2019-06-15T19:41:38.131Z,69.50
2019-06-15T19:44:06.746Z,69.64
2019-06-15T19:46:36.533Z,69.81
2019-06-15T19:49:06.348Z,69.93
2019-06-15T19:51:36.294Z,70.22
2019-06-15T19:54:07.036Z,70.36
2019-06-15T19:56:37.202Z,70.59
2019-06-15T19:59:06.901Z,70.75
2019-06-15T20:01:36.242Z,70.94
2019-06-15T20:04:06.594Z,71.26
2019-06-15T20:06:37.056Z,71.49
2019-06-15T20:09:08.988Z,71.84
2019-06-15T20:11:37.546Z,72.18
2019-06-15T20:14:06.765Z,72.40
2019-06-15T20:16:36.116Z,72.52
2019-06-15T20:19:06.834Z,72.69
2019-06-15T20:21:37.308Z,72.84
2019-06-15T20:24:06.292Z,73.02
2019-06-15T20:26:36.622Z,73.28
2019-06-15T20:29:07.165Z,73.40
2019-06-15T20:31:36.996Z,73.49
2019-06-15T20:34:05.792Z,73.61
2019-06-15T20:36:36.510Z,73.72
2019-06-15T20:39:07.681Z,73.93
2019-06-15T20:41:36.574Z,74.03
2019-06-15T20:44:05.522Z,74.23
2019-06-15T20:46:36.936Z,74.27
2019-06-15T20:49:06.559Z,74.39
2019-06-15T20:51:37.174Z,74.48
2019-06-15T20:54:06.962Z,74.26
2019-06-15T20:56:37.632Z,74.03
2019-06-15T20:59:06.465Z,73.89
2019-06-15T21:01:36.847Z,73.53
2019-06-15T21:04:07.365Z,73.50
2019-06-15T21:06:37.128Z,73.51
2019-06-15T21:09:07.643Z,73.48
2019-06-15T21:11:36.346Z,73.53
2019-06-15T21:14:07.039Z,73.62
2019-06-15T21:16:37.061Z,73.69
2019-06-15T21:19:06.527Z,73.86
2019-06-15T21:21:37.442Z,73.95
2019-06-15T21:24:06.386Z,74.09
2019-06-15T21:26:35.270Z,74.32
2019-06-15T21:29:06.378Z,74.50
2019-06-15T21:31:36.591Z,74.67
2019-06-15T21:34:06.803Z,74.85
2019-06-15T21:36:37.403Z,75.06
2019-06-15T21:39:07.030Z,75.23
2019-06-15T21:41:36.722Z,75.45
2019-06-15T21:44:06.387Z,75.70
2019-06-15T21:46:36.128Z,75.91
2019-06-15T21:49:07.103Z,76.16
2019-06-15T21:51:36.659Z,76.37
2019-06-15T21:54:06.889Z,76.49
2019-06-15T21:56:36.716Z,76.65
2019-06-15T21:59:07.373Z,76.81
2019-06-15T22:01:37.351Z,77.01
2019-06-15T22:04:06.891Z,77.15
2019-06-15T22:06:37.247Z,77.24
2019-06-15T22:09:08.729Z,77.24
2019-06-15T22:11:37.234Z,77.43
2019-06-15T22:14:07.049Z,77.40
2019-06-15T22:16:35.607Z,77.33
2019-06-15T22:19:06.122Z,77.31
2019-06-15T22:21:36.662Z,77.33
2019-06-15T22:24:06.845Z,77.14
2019-06-15T22:26:34.926Z,76.87
2019-06-15T22:29:03.448Z,76.74
2019-06-15T22:31:31.977Z,76.64
2019-06-15T22:34:00.532Z,76.65
2019-06-15T22:36:29.097Z,76.83
2019-06-15T22:38:57.607Z,77.05
2019-06-15T22:41:26.117Z,77.07
2019-06-15T22:43:56.850Z,77.06
2019-06-15T22:46:26.245Z,77.03
2019-06-15T22:48:56.260Z,76.88
2019-06-15T22:51:27.327Z,76.84
2019-06-15T22:53:56.624Z,76.87
2019-06-15T22:56:26.445Z,77.07
2019-06-15T22:58:56.976Z,77.30
2019-06-15T23:01:26.210Z,77.43
2019-06-15T23:03:56.962Z,77.60
2019-06-15T23:06:34.792Z,77.67
2019-06-15T23:08:56.485Z,77.74
2019-06-15T23:11:26.691Z,77.96
2019-06-15T23:13:57.407Z,78.17
2019-06-15T23:16:27.212Z,78.07
2019-06-15T23:18:56.998Z,78.05
2019-06-15T23:21:26.833Z,78.29
2019-06-15T23:23:56.286Z,77.88
2019-06-15T23:26:24.983Z,77.88
2019-06-15T23:28:56.213Z,77.86
2019-06-15T23:31:23.775Z,77.84
2019-06-15T23:33:52.257Z,77.86
2019-06-15T23:36:26.958Z,77.88
2019-06-15T23:38:57.035Z,77.94
2019-06-15T23:41:27.332Z,77.99
2019-06-15T23:43:56.030Z,77.62
2019-06-15T23:46:26.908Z,77.25
2019-06-15T23:48:56.549Z,76.61
2019-06-15T23:51:26.676Z,76.41
2019-06-15T23:53:57.103Z,75.89
2019-06-15T23:56:26.040Z,75.39
2019-06-15T23:58:56.056Z,75.03
